Clark Regional (JVY)

 

Airport Diagram
No Airport Diagram Available
Current Weather/Forecast (VFR Conditions)
METAR KJVY 270235Z AUTO 36003KT 10SM SCT060 SCT090 09/08 A3026 RMK AO2 T00920075
TAF

Airport Information

All Charts
General
Chart Name View
TAKEOFF MINIMUMS
ALTERNATE MINIMUMS
TAKEOFF MINIMUMS
ALTERNATE MINIMUMS

Arrivals
Chart Name Download
CHERI FOUR
DARBY SEVEN
REDSTONE SIX
CHERI FOUR
DARBY SEVEN
REDSTONE SIX

Approaches
Chart Name Download
ILS OR LOC RWY 18
RNAV (GPS) RWY 18
NDB RWY 18
ILS OR LOC RWY 18
RNAV (GPS) RWY 18
NDB RWY 18


Airport Statistics
Departures Arrivals Local
All Collected Stats since June 2016: 29 19 2
2020 Stats: 9 7 0
October Stats: 1 2 0

Inbound Traffic (Arrivals) - 0

No inbound traffic.


Outbound Traffic (Departures) - 0

No outbound traffic.


Local Traffic (Pattern) - 0

No local traffic.